sensor_id;sensor_type;location;lat;lon;timestamp;pressure;altitude;pressure_sealevel;temperature;humidity
40788;BME280;26497;52.494;7.546;2023-04-26T00:01:35;101148.34;;;6.01;65.96
40788;BME280;26497;52.494;7.546;2023-04-26T00:04:02;101151.84;;;6.02;65.72
40788;BME280;26497;52.494;7.546;2023-04-26T00:06:29;101154.47;;;6.02;65.73
40788;BME280;26497;52.494;7.546;2023-04-26T00:08:56;101157.69;;;5.93;65.42
40788;BME280;26497;52.494;7.546;2023-04-26T00:11:24;101152.31;;;5.87;65.48
40788;BME280;26497;52.494;7.546;2023-04-26T00:13:51;101162.69;;;5.84;65.51
40788;BME280;26497;52.494;7.546;2023-04-26T00:16:19;101162.75;;;5.85;65.61
40788;BME280;26497;52.494;7.546;2023-04-26T00:18:46;101160.28;;;5.92;65.50
40788;BME280;26497;52.494;7.546;2023-04-26T00:21:14;101158.59;;;5.94;64.95
40788;BME280;26497;52.494;7.546;2023-04-26T00:23:41;101165.38;;;5.87;65.29
40788;BME280;26497;52.494;7.546;2023-04-26T00:26:08;101160.88;;;5.81;65.45
40788;BME280;26497;52.494;7.546;2023-04-26T00:28:35;101167.75;;;5.78;65.31
40788;BME280;26497;52.494;7.546;2023-04-26T00:31:02;101159.91;;;5.78;65.24
40788;BME280;26497;52.494;7.546;2023-04-26T00:33:31;101162.59;;;5.79;65.43
40788;BME280;26497;52.494;7.546;2023-04-26T00:35:58;101165.97;;;5.75;65.65
40788;BME280;26497;52.494;7.546;2023-04-26T00:38:25;101159.78;;;5.73;65.80
40788;BME280;26497;52.494;7.546;2023-04-26T00:40:52;101163.16;;;5.69;66.08
40788;BME280;26497;52.494;7.546;2023-04-26T00:43:21;101160.63;;;5.72;65.97
40788;BME280;26497;52.494;7.546;2023-04-26T00:45:48;101149.28;;;5.71;65.89
40788;BME280;26497;52.494;7.546;2023-04-26T00:48:17;101153.63;;;5.71;65.56
40788;BME280;26497;52.494;7.546;2023-04-26T00:50:45;101155.31;;;5.69;65.79
40788;BME280;26497;52.494;7.546;2023-04-26T00:53:13;101141.63;;;5.79;65.66
40788;BME280;26497;52.494;7.546;2023-04-26T00:55:42;101148.56;;;5.77;65.39
40788;BME280;26497;52.494;7.546;2023-04-26T00:58:10;101149.25;;;5.70;65.47
40788;BME280;26497;52.494;7.546;2023-04-26T01:00:37;101150.28;;;5.76;65.10
40788;BME280;26497;52.494;7.546;2023-04-26T01:03:05;101148.41;;;5.72;64.82
40788;BME280;26497;52.494;7.546;2023-04-26T01:05:32;101148.22;;;5.65;65.11
40788;BME280;26497;52.494;7.546;2023-04-26T01:08:00;101153.28;;;5.58;65.72
40788;BME280;26497;52.494;7.546;2023-04-26T01:10:29;101149.75;;;5.56;65.83
40788;BME280;26497;52.494;7.546;2023-04-26T01:12:57;101155.06;;;5.59;66.33
40788;BME280;26497;52.494;7.546;2023-04-26T01:15:25;101143.59;;;5.56;65.93
40788;BME280;26497;52.494;7.546;2023-04-26T01:17:53;101148.75;;;5.53;66.10
40788;BME280;26497;52.494;7.546;2023-04-26T01:20:20;101152.19;;;5.50;66.27
40788;BME280;26497;52.494;7.546;2023-04-26T01:22:48;101155.66;;;5.51;66.18
40788;BME280;26497;52.494;7.546;2023-04-26T01:25:17;101156.50;;;5.50;66.13
40788;BME280;26497;52.494;7.546;2023-04-26T01:27:45;101156.50;;;5.50;66.49
40788;BME280;26497;52.494;7.546;2023-04-26T01:30:12;101158.19;;;5.46;66.34
40788;BME280;26497;52.494;7.546;2023-04-26T01:32:39;101151.00;;;5.39;66.88
40788;BME280;26497;52.494;7.546;2023-04-26T01:35:07;101154.56;;;5.42;66.89
40788;BME280;26497;52.494;7.546;2023-04-26T01:37:34;101157.34;;;5.47;66.90
40788;BME280;26497;52.494;7.546;2023-04-26T01:40:04;101152.84;;;5.43;66.89
40788;BME280;26497;52.494;7.546;2023-04-26T01:42:32;101159.84;;;5.44;67.00
40788;BME280;26497;52.494;7.546;2023-04-26T01:44:59;101152.94;;;5.46;66.94
40788;BME280;26497;52.494;7.546;2023-04-26T01:47:26;101154.63;;;5.44;66.78
40788;BME280;26497;52.494;7.546;2023-04-26T01:49:53;101152.88;;;5.44;66.49
40788;BME280;26497;52.494;7.546;2023-04-26T01:52:21;101148.56;;;5.46;66.70
40788;BME280;26497;52.494;7.546;2023-04-26T01:54:48;101152.84;;;5.43;66.56
40788;BME280;26497;52.494;7.546;2023-04-26T01:57:17;101151.16;;;5.45;66.91
40788;BME280;26497;52.494;7.546;2023-04-26T01:59:44;101151.06;;;5.42;66.99
40788;BME280;26497;52.494;7.546;2023-04-26T02:02:11;101151.06;;;5.42;66.82
40788;BME280;26497;52.494;7.546;2023-04-26T02:04:38;101156.25;;;5.40;66.33
40788;BME280;26497;52.494;7.546;2023-04-26T02:07:05;101154.53;;;5.41;66.43
40788;BME280;26497;52.494;7.546;2023-04-26T02:09:32;101157.16;;;5.41;66.79
40788;BME280;26497;52.494;7.546;2023-04-26T02:11:59;101159.00;;;5.45;66.54
40788;BME280;26497;52.494;7.546;2023-04-26T02:14:29;101153.81;;;5.46;66.85
40788;BME280;26497;52.494;7.546;2023-04-26T02:16:56;101160.13;;;5.53;67.26
40788;BME280;26497;52.494;7.546;2023-04-26T02:19:23;101162.09;;;5.62;67.43
40788;BME280;26497;52.494;7.546;2023-04-26T02:21:53;101157.19;;;5.73;67.60
40788;BME280;26497;52.494;7.546;2023-04-26T02:24:22;101152.31;;;5.87;67.67
40788;BME280;26497;52.494;7.546;2023-04-26T02:26:49;101157.78;;;5.96;67.89
40788;BME280;26497;52.494;7.546;2023-04-26T02:29:16;101154.63;;;6.08;68.04
40788;BME280;26497;52.494;7.546;2023-04-26T02:31:45;101155.84;;;6.21;68.03
40788;BME280;26497;52.494;7.546;2023-04-26T02:34:13;101162.09;;;6.28;67.94
40788;BME280;26497;52.494;7.546;2023-04-26T02:36:41;101157.22;;;6.42;67.96
40788;BME280;26497;52.494;7.546;2023-04-26T02:39:08;101157.41;;;6.49;67.99
40788;BME280;26497;52.494;7.546;2023-04-26T02:41:36;101159.31;;;6.57;68.55
40788;BME280;26497;52.494;7.546;2023-04-26T02:44:04;101161.09;;;6.58;68.81
40788;BME280;26497;52.494;7.546;2023-04-26T02:46:32;101149.94;;;6.67;68.66
40788;BME280;26497;52.494;7.546;2023-04-26T02:49:00;101156.06;;;6.67;68.76
40788;BME280;26497;52.494;7.546;2023-04-26T02:51:28;101152.63;;;6.70;68.80
40788;BME280;26497;52.494;7.546;2023-04-26T02:53:55;101152.69;;;6.71;68.73
40788;BME280;26497;52.494;7.546;2023-04-26T02:56:24;101155.38;;;6.74;68.66
40788;BME280;26497;52.494;7.546;2023-04-26T02:58:51;101161.38;;;6.70;68.32
40788;BME280;26497;52.494;7.546;2023-04-26T03:01:21;101150.75;;;6.62;67.99
40788;BME280;26497;52.494;7.546;2023-04-26T03:03:48;101153.13;;;6.53;68.11
40788;BME280;26497;52.494;7.546;2023-04-26T03:06:17;101160.69;;;6.41;68.01
40788;BME280;26497;52.494;7.546;2023-04-26T03:08:44;101157.06;;;6.36;67.65
40788;BME280;26497;52.494;7.546;2023-04-26T03:11:12;101150.78;;;6.29;67.75
40788;BME280;26497;52.494;7.546;2023-04-26T03:13:39;101153.47;;;6.32;67.41
40788;BME280;26497;52.494;7.546;2023-04-26T03:16:06;101154.22;;;6.26;67.09
40788;BME280;26497;52.494;7.546;2023-04-26T03:18:34;101153.16;;;6.18;66.86
40788;BME280;26497;52.494;7.546;2023-04-26T03:21:02;101150.31;;;6.10;67.02
40788;BME280;26497;52.494;7.546;2023-04-26T03:23:31;101150.22;;;6.07;66.94
40788;BME280;26497;52.494;7.546;2023-04-26T03:25:58;101146.59;;;6.02;66.69
40788;BME280;26497;52.494;7.546;2023-04-26T03:28:25;101152.56;;;5.98;66.63
40788;BME280;26497;52.494;7.546;2023-04-26T03:30:52;101141.16;;;5.94;66.41
40788;BME280;26497;52.494;7.546;2023-04-26T03:33:19;101149.69;;;5.87;66.87
40788;BME280;26497;52.494;7.546;2023-04-26T03:35:46;101148.66;;;5.80;67.00
40788;BME280;26497;52.494;7.546;2023-04-26T03:38:13;101150.34;;;5.78;67.10
40788;BME280;26497;52.494;7.546;2023-04-26T03:40:42;101148.47;;;5.74;67.38
40788;BME280;26497;52.494;7.546;2023-04-26T03:43:09;101145.88;;;5.75;67.64
40788;BME280;26497;52.494;7.546;2023-04-26T03:45:36;101144.41;;;5.85;67.95
40788;BME280;26497;52.494;7.546;2023-04-26T03:48:04;101135.03;;;5.94;68.27
40788;BME280;26497;52.494;7.546;2023-04-26T03:50:31;101142.28;;;6.02;68.38
40788;BME280;26497;52.494;7.546;2023-04-26T03:52:58;101146.06;;;6.15;68.38
40788;BME280;26497;52.494;7.546;2023-04-26T03:55:25;101148.13;;;6.27;67.96
40788;BME280;26497;52.494;7.546;2023-04-26T03:57:54;101137.75;;;6.32;67.91
40788;BME280;26497;52.494;7.546;2023-04-26T04:00:21;101145.59;;;6.30;68.01
40788;BME280;26497;52.494;7.546;2023-04-26T04:02:48;101134.28;;;6.33;68.14
40788;BME280;26497;52.494;7.546;2023-04-26T04:05:15;101144.06;;;6.39;69.06
40788;BME280;26497;52.494;7.546;2023-04-26T04:07:42;101137.28;;;6.48;69.43
40788;BME280;26497;52.494;7.546;2023-04-26T04:10:10;101144.56;;;6.60;69.30
40788;BME280;26497;52.494;7.546;2023-04-26T04:12:37;101143.03;;;6.70;69.16
40788;BME280;26497;52.494;7.546;2023-04-26T04:15:07;101149.38;;;6.80;68.99
40788;BME280;26497;52.494;7.546;2023-04-26T04:17:36;101141.72;;;6.89;68.68
40788;BME280;26497;52.494;7.546;2023-04-26T04:20:04;101150.47;;;6.90;68.61
40788;BME280;26497;52.494;7.546;2023-04-26T04:22:32;101147.84;;;6.90;68.42
40788;BME280;26497;52.494;7.546;2023-04-26T04:24:59;101142.63;;;6.90;68.45
40788;BME280;26497;52.494;7.546;2023-04-26T04:27:29;101150.53;;;6.93;68.64
40788;BME280;26497;52.494;7.546;2023-04-26T04:29:56;101147.16;;;6.97;68.76
40788;BME280;26497;52.494;7.546;2023-04-26T04:32:25;101147.34;;;7.06;69.13
40788;BME280;26497;52.494;7.546;2023-04-26T04:34:52;101143.28;;;7.21;69.07
40788;BME280;26497;52.494;7.546;2023-04-26T04:37:19;101146.84;;;7.25;69.02
40788;BME280;26497;52.494;7.546;2023-04-26T04:39:47;101144.13;;;7.20;69.13
40788;BME280;26497;52.494;7.546;2023-04-26T04:42:15;101162.53;;;7.21;69.44
40788;BME280;26497;52.494;7.546;2023-04-26T04:44:42;101150.38;;;7.25;69.80
40788;BME280;26497;52.494;7.546;2023-04-26T04:47:10;101145.25;;;7.33;69.96
40788;BME280;26497;52.494;7.546;2023-04-26T04:49:39;101160.31;;;7.42;69.82
40788;BME280;26497;52.494;7.546;2023-04-26T04:52:06;101156.09;;;7.50;69.76
40788;BME280;26497;52.494;7.546;2023-04-26T04:54:33;101158.94;;;7.61;70.16
40788;BME280;26497;52.494;7.546;2023-04-26T04:57:00;101154.06;;;7.79;70.80
40788;BME280;26497;52.494;7.546;2023-04-26T04:59:27;101154.75;;;8.20;72.31
40788;BME280;26497;52.494;7.546;2023-04-26T05:01:55;101158.19;;;8.68;72.71
40788;BME280;26497;52.494;7.546;2023-04-26T05:04:23;101155.94;;;8.93;71.91
40788;BME280;26497;52.494;7.546;2023-04-26T05:06:51;101153.28;;;8.93;70.06
40788;BME280;26497;52.494;7.546;2023-04-26T05:09:18;101153.25;;;8.90;70.18
40788;BME280;26497;52.494;7.546;2023-04-26T05:11:46;101162.69;;;8.74;68.49
40788;BME280;26497;52.494;7.546;2023-04-26T05:14:13;101162.31;;;8.50;68.36
40788;BME280;26497;52.494;7.546;2023-04-26T05:16:40;101162.03;;;8.36;68.67
40788;BME280;26497;52.494;7.546;2023-04-26T05:19:07;101162.94;;;8.37;70.08
40788;BME280;26497;52.494;7.546;2023-04-26T05:21:35;101164.81;;;8.44;70.25
40788;BME280;26497;52.494;7.546;2023-04-26T05:24:04;101157.66;;;8.35;69.52
40788;BME280;26497;52.494;7.546;2023-04-26T05:26:31;101169.28;;;8.48;70.55
40788;BME280;26497;52.494;7.546;2023-04-26T05:28:58;101165.16;;;8.66;70.73
40788;BME280;26497;52.494;7.546;2023-04-26T05:31:25;101168.03;;;8.81;70.69
40788;BME280;26497;52.494;7.546;2023-04-26T05:33:52;101169.94;;;8.92;70.46
40788;BME280;26497;52.494;7.546;2023-04-26T05:36:19;101179.28;;;8.71;69.58
40788;BME280;26497;52.494;7.546;2023-04-26T05:38:47;101175.00;;;8.79;69.89
40788;BME280;26497;52.494;7.546;2023-04-26T05:41:15;101182.09;;;8.83;69.67
40788;BME280;26497;52.494;7.546;2023-04-26T05:43:42;101185.69;;;8.89;70.19
40788;BME280;26497;52.494;7.546;2023-04-26T05:46:10;101179.78;;;9.05;70.82
40788;BME280;26497;52.494;7.546;2023-04-26T05:48:37;101186.03;;;9.12;70.20
40788;BME280;26497;52.494;7.546;2023-04-26T05:51:04;101181.63;;;9.12;69.86
40788;BME280;26497;52.494;7.546;2023-04-26T05:53:31;101180.72;;;9.10;69.01
40788;BME280;26497;52.494;7.546;2023-04-26T05:55:59;101186.13;;;9.20;69.14
40788;BME280;26497;52.494;7.546;2023-04-26T05:58:28;101188.09;;;9.36;68.95
40788;BME280;26497;52.494;7.546;2023-04-26T06:00:55;101185.53;;;9.42;69.01
40788;BME280;26497;52.494;7.546;2023-04-26T06:03:22;101196.16;;;9.49;68.66
40788;BME280;26497;52.494;7.546;2023-04-26T06:05:50;101186.63;;;9.62;68.20
40788;BME280;26497;52.494;7.546;2023-04-26T06:08:17;101194.09;;;10.01;69.70
40788;BME280;26497;52.494;7.546;2023-04-26T06:10:44;101191.00;;;10.40;69.51
40788;BME280;26497;52.494;7.546;2023-04-26T06:13:11;101196.44;;;10.57;69.16
40788;BME280;26497;52.494;7.546;2023-04-26T06:15:40;101198.31;;;10.75;67.56
40788;BME280;26497;52.494;7.546;2023-04-26T06:18:07;101201.03;;;10.84;65.49
40788;BME280;26497;52.494;7.546;2023-04-26T06:20:34;101202.59;;;10.60;65.96
40788;BME280;26497;52.494;7.546;2023-04-26T06:23:02;101202.56;;;10.56;65.63
40788;BME280;26497;52.494;7.546;2023-04-26T06:25:29;101206.28;;;10.81;67.55
40788;BME280;26497;52.494;7.546;2023-04-26T06:27:56;101205.03;;;11.89;70.40
40788;BME280;26497;52.494;7.546;2023-04-26T06:30:24;101206.84;;;13.25;67.45
40788;BME280;26497;52.494;7.546;2023-04-26T06:32:52;101198.09;;;14.65;61.79
40788;BME280;26497;52.494;7.546;2023-04-26T06:35:19;101192.53;;;15.71;56.47
40788;BME280;26497;52.494;7.546;2023-04-26T06:37:48;101196.41;;;16.67;50.99
40788;BME280;26497;52.494;7.546;2023-04-26T06:40:15;101198.06;;;17.24;47.26
40788;BME280;26497;52.494;7.546;2023-04-26T06:42:43;101198.47;;;17.91;46.33
40788;BME280;26497;52.494;7.546;2023-04-26T06:45:10;101194.09;;;19.30;44.58
40788;BME280;26497;52.494;7.546;2023-04-26T06:47:38;101193.31;;;19.58;36.31
40788;BME280;26497;52.494;7.546;2023-04-26T06:50:09;101194.84;;;19.35;37.17
40788;BME280;26497;52.494;7.546;2023-04-26T06:52:36;101191.63;;;19.85;38.44
40788;BME280;26497;52.494;7.546;2023-04-26T06:55:04;101191.91;;;20.60;34.35
40788;BME280;26497;52.494;7.546;2023-04-26T06:57:31;101186.88;;;21.03;33.43
40788;BME280;26497;52.494;7.546;2023-04-26T06:59:58;101190.31;;;21.56;33.49
40788;BME280;26497;52.494;7.546;2023-04-26T07:02:26;101186.53;;;21.85;33.72
40788;BME280;26497;52.494;7.546;2023-04-26T07:04:53;101177.53;;;21.64;31.64
40788;BME280;26497;52.494;7.546;2023-04-26T07:07:21;101180.28;;;21.61;30.25
40788;BME280;26497;52.494;7.546;2023-04-26T07:09:48;101185.78;;;21.58;31.35
40788;BME280;26497;52.494;7.546;2023-04-26T07:12:16;101181.47;;;20.79;31.36
40788;BME280;26497;52.494;7.546;2023-04-26T07:14:43;101186.28;;;20.14;32.21
40788;BME280;26497;52.494;7.546;2023-04-26T07:17:10;101195.59;;;19.72;32.22
40788;BME280;26497;52.494;7.546;2023-04-26T07:19:37;101191.22;;;19.06;33.17
40788;BME280;26497;52.494;7.546;2023-04-26T07:22:04;101190.78;;;18.16;33.08
40788;BME280;26497;52.494;7.546;2023-04-26T07:24:33;101184.75;;;17.67;36.05
40788;BME280;26497;52.494;7.546;2023-04-26T07:27:00;101181.06;;;17.30;36.93
40788;BME280;26497;52.494;7.546;2023-04-26T07:29:28;101185.22;;;17.00;36.27
40788;BME280;26497;52.494;7.546;2023-04-26T07:31:55;101191.78;;;16.78;36.92
40788;BME280;26497;52.494;7.546;2023-04-26T07:34:23;101193.06;;;17.07;38.20
40788;BME280;26497;52.494;7.546;2023-04-26T07:36:50;101200.22;;;17.92;35.69
40788;BME280;26497;52.494;7.546;2023-04-26T07:39:18;101198.19;;;19.12;34.88
40788;BME280;26497;52.494;7.546;2023-04-26T07:41:46;101197.28;;;20.60;32.01
40788;BME280;26497;52.494;7.546;2023-04-26T07:44:14;101193.78;;;21.83;29.28
40788;BME280;26497;52.494;7.546;2023-04-26T07:46:41;101192.53;;;23.00;28.95
40788;BME280;26497;52.494;7.546;2023-04-26T07:49:08;101184.81;;;23.72;25.99
40788;BME280;26497;52.494;7.546;2023-04-26T07:51:35;101190.66;;;23.82;27.19
40788;BME280;26497;52.494;7.546;2023-04-26T07:54:03;101186.31;;;25.06;24.51
40788;BME280;26497;52.494;7.546;2023-04-26T07:56:30;101191.72;;;26.52;24.51
40788;BME280;26497;52.494;7.546;2023-04-26T07:58:58;101186.38;;;26.35;23.75
40788;BME280;26497;52.494;7.546;2023-04-26T08:01:25;101195.69;;;24.26;25.28
40788;BME280;26497;52.494;7.546;2023-04-26T08:03:53;101202.75;;;22.04;27.21
40788;BME280;26497;52.494;7.546;2023-04-26T08:06:20;101195.53;;;20.86;28.71
40788;BME280;26497;52.494;7.546;2023-04-26T08:08:47;101201.09;;;21.05;29.70
40788;BME280;26497;52.494;7.546;2023-04-26T08:11:15;101194.81;;;20.81;30.42
40788;BME280;26497;52.494;7.546;2023-04-26T08:13:43;101183.56;;;21.45;30.03
40788;BME280;26497;52.494;7.546;2023-04-26T08:16:11;101181.50;;;22.86;28.86
40788;BME280;26497;52.494;7.546;2023-04-26T08:18:38;101181.44;;;24.24;26.93
40788;BME280;26497;52.494;7.546;2023-04-26T08:21:06;101186.31;;;24.88;25.77
40788;BME280;26497;52.494;7.546;2023-04-26T08:23:34;101184.66;;;24.68;24.84
40788;BME280;26497;52.494;7.546;2023-04-26T08:26:04;101184.66;;;23.37;26.19
40788;BME280;26497;52.494;7.546;2023-04-26T08:28:31;101184.72;;;24.49;25.02
40788;BME280;26497;52.494;7.546;2023-04-26T08:30:58;101188.84;;;24.38;24.65
40788;BME280;26497;52.494;7.546;2023-04-26T08:33:27;101190.97;;;22.31;26.83
40788;BME280;26497;52.494;7.546;2023-04-26T08:35:58;101194.00;;;20.79;27.72
40788;BME280;26497;52.494;7.546;2023-04-26T08:38:26;101205.63;;;19.32;31.16
40788;BME280;26497;52.494;7.546;2023-04-26T08:40:55;101204.59;;;17.94;33.89
40788;BME280;26497;52.494;7.546;2023-04-26T08:43:27;101214.00;;;16.77;34.56
40788;BME280;26497;52.494;7.546;2023-04-26T08:45:57;101206.50;;;16.49;34.76
40788;BME280;26497;52.494;7.546;2023-04-26T08:48:27;101222.84;;;16.23;37.01
40788;BME280;26497;52.494;7.546;2023-04-26T08:50:59;101207.16;;;17.14;33.90
40788;BME280;26497;52.494;7.546;2023-04-26T08:53:29;101203.88;;;18.63;32.92
40788;BME280;26497;52.494;7.546;2023-04-26T08:55:57;101196.25;;;20.91;29.60
40788;BME280;26497;52.494;7.546;2023-04-26T08:58:25;101202.97;;;22.87;24.85
40788;BME280;26497;52.494;7.546;2023-04-26T09:00:53;101194.81;;;23.30;25.06
40788;BME280;26497;52.494;7.546;2023-04-26T09:03:22;101191.06;;;24.48;25.72
40788;BME280;26497;52.494;7.546;2023-04-26T09:05:53;101196.69;;;24.61;23.78
40788;BME280;26497;52.494;7.546;2023-04-26T09:08:20;101201.78;;;24.12;24.61
40788;BME280;26497;52.494;7.546;2023-04-26T09:10:48;101202.72;;;22.28;26.25
40788;BME280;26497;52.494;7.546;2023-04-26T09:13:15;101213.25;;;20.90;28.01
40788;BME280;26497;52.494;7.546;2023-04-26T09:15:42;101206.44;;;19.97;31.41
40788;BME280;26497;52.494;7.546;2023-04-26T09:18:17;101206.13;;;20.62;29.29
40788;BME280;26497;52.494;7.546;2023-04-26T09:20:45;101199.47;;;21.50;28.41
40788;BME280;26497;52.494;7.546;2023-04-26T09:23:28;101197.00;;;23.41;26.75
40788;BME280;26497;52.494;7.546;2023-04-26T09:25:55;101198.59;;;24.04;26.01
40788;BME280;26497;52.494;7.546;2023-04-26T09:28:23;101206.47;;;24.81;23.55
40788;BME280;26497;52.494;7.546;2023-04-26T09:30:51;101206.00;;;24.90;23.91
40788;BME280;26497;52.494;7.546;2023-04-26T09:33:18;101197.88;;;25.41;23.06
40788;BME280;26497;52.494;7.546;2023-04-26T09:35:46;101204.72;;;24.80;23.11
40788;BME280;26497;52.494;7.546;2023-04-26T09:38:14;101204.09;;;23.63;22.94
40788;BME280;26497;52.494;7.546;2023-04-26T09:40:45;101203.00;;;22.43;24.37
40788;BME280;26497;52.494;7.546;2023-04-26T09:43:15;101211.41;;;21.17;27.53
40788;BME280;26497;52.494;7.546;2023-04-26T09:45:45;101210.03;;;20.53;29.36
40788;BME280;26497;52.494;7.546;2023-04-26T09:48:18;101213.09;;;20.95;29.11
40788;BME280;26497;52.494;7.546;2023-04-26T09:50:50;101204.13;;;23.21;24.73
40788;BME280;26497;52.494;7.546;2023-04-26T09:53:30;101200.31;;;25.64;22.77
40788;BME280;26497;52.494;7.546;2023-04-26T09:56:08;101190.06;;;26.79;20.09
40788;BME280;26497;52.494;7.546;2023-04-26T09:58:39;101195.00;;;25.28;20.51
40788;BME280;26497;52.494;7.546;2023-04-26T10:01:07;101197.63;;;23.48;23.06
40788;BME280;26497;52.494;7.546;2023-04-26T10:03:34;101195.41;;;21.63;26.50
40788;BME280;26497;52.494;7.546;2023-04-26T10:06:03;101202.34;;;21.45;26.78
40788;BME280;26497;52.494;7.546;2023-04-26T10:08:31;101190.94;;;21.64;26.63
40788;BME280;26497;52.494;7.546;2023-04-26T10:10:59;101197.78;;;20.44;27.56
40788;BME280;26497;52.494;7.546;2023-04-26T10:13:30;101201.09;;;19.04;29.71
40788;BME280;26497;52.494;7.546;2023-04-26T10:15:58;101193.44;;;18.89;31.13
40788;BME280;26497;52.494;7.546;2023-04-26T10:18:26;101189.63;;;20.21;27.88
40788;BME280;26497;52.494;7.546;2023-04-26T10:20:58;101190.97;;;22.53;25.37
40788;BME280;26497;52.494;7.546;2023-04-26T10:23:26;101188.25;;;24.32;22.64
40788;BME280;26497;52.494;7.546;2023-04-26T10:25:54;101182.56;;;25.75;20.73
40788;BME280;26497;52.494;7.546;2023-04-26T10:31:15;101171.38;;;25.50;20.45
40788;BME280;26497;52.494;7.546;2023-04-26T10:33:42;101173.00;;;25.18;22.00
40788;BME280;26497;52.494;7.546;2023-04-26T10:36:11;101167.66;;;25.35;20.68
40788;BME280;26497;52.494;7.546;2023-04-26T10:38:41;101163.63;;;24.92;21.65
40788;BME280;26497;52.494;7.546;2023-04-26T10:41:32;101173.47;;;23.84;22.74
40788;BME280;26497;52.494;7.546;2023-04-26T10:44:37;101167.66;;;22.95;23.45
40788;BME280;26497;52.494;7.546;2023-04-26T10:47:24;101170.25;;;22.12;24.84
40788;BME280;26497;52.494;7.546;2023-04-26T10:49:51;101169.78;;;21.31;26.22
40788;BME280;26497;52.494;7.546;2023-04-26T10:52:19;101178.91;;;20.49;25.41
40788;BME280;26497;52.494;7.546;2023-04-26T10:54:55;101177.34;;;19.55;28.33
40788;BME280;26497;52.494;7.546;2023-04-26T10:57:50;101170.81;;;18.69;27.68
40788;BME280;26497;52.494;7.546;2023-04-26T11:00:26;101188.03;;;18.21;29.18
40788;BME280;26497;52.494;7.546;2023-04-26T11:02:57;101185.91;;;17.94;29.79
40788;BME280;26497;52.494;7.546;2023-04-26T11:05:53;101184.06;;;17.98;31.46
40788;BME280;26497;52.494;7.546;2023-04-26T11:08:25;101182.00;;;17.72;33.13
40788;BME280;26497;52.494;7.546;2023-04-26T11:11:09;101187.91;;;16.98;33.76
40788;BME280;26497;52.494;7.546;2023-04-26T11:13:40;101187.81;;;16.51;34.60
40788;BME280;26497;52.494;7.546;2023-04-26T11:16:18;101190.97;;;16.20;35.24
40788;BME280;26497;52.494;7.546;2023-04-26T11:18:48;101193.25;;;15.87;34.63
40788;BME280;26497;52.494;7.546;2023-04-26T11:21:15;101190.38;;;16.01;35.12
40788;BME280;26497;52.494;7.546;2023-04-26T11:23:52;101192.94;;;16.07;35.05
40788;BME280;26497;52.494;7.546;2023-04-26T11:26:20;101180.22;;;16.28;35.23
40788;BME280;26497;52.494;7.546;2023-04-26T11:28:48;101189.81;;;16.38;34.82
40788;BME280;26497;52.494;7.546;2023-04-26T11:31:18;101187.25;;;16.30;35.64
40788;BME280;26497;52.494;7.546;2023-04-26T11:33:46;101188.53;;;16.61;34.57
40788;BME280;26497;52.494;7.546;2023-04-26T11:36:13;101188.53;;;16.62;34.33
40788;BME280;26497;52.494;7.546;2023-04-26T11:38:40;101181.44;;;16.60;35.49
40788;BME280;26497;52.494;7.546;2023-04-26T11:41:08;101189.44;;;16.60;33.14
40788;BME280;26497;52.494;7.546;2023-04-26T11:43:36;101197.16;;;16.77;33.67
40788;BME280;26497;52.494;7.546;2023-04-26T11:46:05;101199.75;;;16.80;32.94
40788;BME280;26497;52.494;7.546;2023-04-26T11:48:35;101198.34;;;17.10;33.27
40788;BME280;26497;52.494;7.546;2023-04-26T11:51:05;101200.28;;;17.46;32.50
40788;BME280;26497;52.494;7.546;2023-04-26T11:53:36;101198.53;;;17.88;33.58
40788;BME280;26497;52.494;7.546;2023-04-26T11:56:04;101199.56;;;17.80;33.36
40788;BME280;26497;52.494;7.546;2023-04-26T11:58:31;101201.50;;;17.74;32.85
40788;BME280;26497;52.494;7.546;2023-04-26T12:00:59;101195.81;;;17.89;31.62
40788;BME280;26497;52.494;7.546;2023-04-26T12:03:30;101201.94;;;17.94;31.43
40788;BME280;26497;52.494;7.546;2023-04-26T12:06:00;101202.75;;;17.96;30.21
40788;BME280;26497;52.494;7.546;2023-04-26T12:08:28;101206.22;;;18.03;31.77
40788;BME280;26497;52.494;7.546;2023-04-26T12:10:58;101205.25;;;18.07;31.22
40788;BME280;26497;52.494;7.546;2023-04-26T12:13:27;101197.28;;;18.44;30.94
40788;BME280;26497;52.494;7.546;2023-04-26T12:15:54;101196.50;;;19.41;28.38
40788;BME280;26497;52.494;7.546;2023-04-26T12:18:28;101191.63;;;19.85;30.45
40788;BME280;26497;52.494;7.546;2023-04-26T12:20:57;101191.97;;;20.85;29.88
40788;BME280;26497;52.494;7.546;2023-04-26T12:23:25;101180.47;;;21.80;26.20
40788;BME280;26497;52.494;7.546;2023-04-26T12:25:55;101177.09;;;21.97;23.59
40788;BME280;26497;52.494;7.546;2023-04-26T12:28:27;101183.81;;;22.95;25.49
40788;BME280;26497;52.494;7.546;2023-04-26T12:30:54;101175.16;;;24.06;24.33
40788;BME280;26497;52.494;7.546;2023-04-26T12:33:21;101170.44;;;24.64;23.07
40788;BME280;26497;52.494;7.546;2023-04-26T12:35:50;101172.28;;;24.64;23.00
40788;BME280;26497;52.494;7.546;2023-04-26T12:38:17;101175.97;;;24.61;22.75
40788;BME280;26497;52.494;7.546;2023-04-26T12:40:44;101166.09;;;24.44;23.07
40788;BME280;26497;52.494;7.546;2023-04-26T12:43:13;101174.56;;;24.71;24.25
40788;BME280;26497;52.494;7.546;2023-04-26T12:45:40;101177.59;;;24.83;24.47
40788;BME280;26497;52.494;7.546;2023-04-26T12:48:07;101177.53;;;24.84;25.01
40788;BME280;26497;52.494;7.546;2023-04-26T12:50:34;101171.56;;;25.63;23.06
40788;BME280;26497;52.494;7.546;2023-04-26T12:53:01;101172.25;;;26.61;22.05
40788;BME280;26497;52.494;7.546;2023-04-26T12:55:28;101176.53;;;27.39;22.05
40788;BME280;26497;52.494;7.546;2023-04-26T12:57:55;101173.97;;;26.92;21.18
40788;BME280;26497;52.494;7.546;2023-04-26T13:00:23;101174.88;;;27.22;20.40
40788;BME280;26497;52.494;7.546;2023-04-26T13:02:51;101174.16;;;26.89;20.36
40788;BME280;26497;52.494;7.546;2023-04-26T13:05:18;101176.94;;;25.46;21.01